createdAt,value
2018-06-19T00:01:16.102Z,60.90
2018-06-19T00:03:45.036Z,61.00
2018-06-19T00:06:14.007Z,61.20
2018-06-19T00:08:42.934Z,61.00
2018-06-19T00:11:12.109Z,61.20
2018-06-19T00:13:41.254Z,61.20
2018-06-19T00:16:10.270Z,60.70
2018-06-19T00:18:44.150Z,61.10
2018-06-19T00:21:18.965Z,60.60
2018-06-19T00:23:47.897Z,61.30
2018-06-19T00:26:16.811Z,61.60
2018-06-19T00:28:46.925Z,61.80
2018-06-19T00:31:15.963Z,61.80
2018-06-19T00:33:45.075Z,61.60
2018-06-19T00:36:14.006Z,61.30
2018-06-19T00:38:42.906Z,61.10
2018-06-19T00:41:11.825Z,60.60
2018-06-19T00:43:40.733Z,60.20
2018-06-19T00:46:09.963Z,59.70
2018-06-19T00:48:38.874Z,59.50
2018-06-19T00:51:09.318Z,59.10
2018-06-19T00:53:38.221Z,59.30
2018-06-19T00:56:17.715Z,59.20
2018-06-19T00:58:46.658Z,59.10
2018-06-19T01:01:15.562Z,59.20
2018-06-19T01:03:44.463Z,59.30
2018-06-19T01:06:13.436Z,59.70
2018-06-19T01:08:42.399Z,59.80
2018-06-19T01:11:11.367Z,59.50
2018-06-19T01:13:40.306Z,59.30
2018-06-19T01:16:09.246Z,59.40
2018-06-19T01:18:38.162Z,60.10
2018-06-19T01:21:09.705Z,60.30
2018-06-19T01:23:38.608Z,60.20
2018-06-19T01:26:07.518Z,60.10
2018-06-19T01:28:36.499Z,59.90
2018-06-19T01:31:05.501Z,60.10
2018-06-19T01:33:34.442Z,59.50
2018-06-19T01:36:03.357Z,59.30
2018-06-19T01:38:32.259Z,58.90
2018-06-19T01:41:01.173Z,59.00
2018-06-19T01:43:30.084Z,58.90
2018-06-19T01:45:59.003Z,59.10
2018-06-19T01:48:27.910Z,59.30
2018-06-19T01:50:56.813Z,59.30
2018-06-19T01:53:25.726Z,59.60
2018-06-19T01:55:54.632Z,59.70
2018-06-19T01:58:23.557Z,60.00
2018-06-19T02:00:52.462Z,60.70
2018-06-19T02:03:21.361Z,61.20
2018-06-19T02:05:50.290Z,61.50
2018-06-19T02:08:19.200Z,62.00
2018-06-19T02:10:48.117Z,62.20
2018-06-19T02:13:17.024Z,62.60
2018-06-19T02:15:46.000Z,62.30
2018-06-19T02:18:14.918Z,61.70
2018-06-19T02:20:43.829Z,61.10
2018-06-19T02:23:12.794Z,60.80
2018-06-19T02:25:41.708Z,60.90
2018-06-19T02:28:10.628Z,60.80
2018-06-19T02:30:39.546Z,60.60
2018-06-19T02:33:09.464Z,60.30
2018-06-19T02:35:38.365Z,60.40
2018-06-19T02:38:07.266Z,60.90
2018-06-19T02:40:36.182Z,61.40
2018-06-19T02:43:05.128Z,62.30
2018-06-19T02:45:34.071Z,61.90
2018-06-19T02:48:03.067Z,62.40
2018-06-19T02:57:13.312Z,62.10
2018-06-19T02:59:42.210Z,62.20
2018-06-19T03:02:11.154Z,62.10
2018-06-19T03:04:40.042Z,61.70
2018-06-19T03:07:08.950Z,61.60
2018-06-19T03:09:37.849Z,61.70
2018-06-19T03:12:06.765Z,61.60
2018-06-19T03:14:35.689Z,62.00
2018-06-19T03:17:04.601Z,62.60
2018-06-19T03:19:33.516Z,63.40
2018-06-19T03:22:02.413Z,63.80
2018-06-19T03:24:31.297Z,64.10
2018-06-19T03:27:00.525Z,64.60
2018-06-19T03:29:29.425Z,65.20
2018-06-19T03:31:58.328Z,65.90
2018-06-19T03:34:27.242Z,66.50
2018-06-19T03:36:56.128Z,66.50
2018-06-19T03:39:25.037Z,66.10
2018-06-19T03:41:54.033Z,65.60
2018-06-19T03:44:22.948Z,64.90
2018-06-19T03:46:51.858Z,65.30
2018-06-19T03:49:20.749Z,65.20
2018-06-19T03:51:49.777Z,65.80
2018-06-19T03:54:18.687Z,66.40
2018-06-19T03:56:47.595Z,66.40
2018-06-19T03:59:16.486Z,65.70
2018-06-19T04:01:45.413Z,65.00
2018-06-19T04:04:14.338Z,64.90
2018-06-19T04:06:43.277Z,64.70
2018-06-19T04:09:12.181Z,64.70
2018-06-19T04:11:41.093Z,64.60
2018-06-19T04:14:09.990Z,64.50
2018-06-19T04:16:38.870Z,64.60
2018-06-19T04:19:07.769Z,65.20
2018-06-19T04:21:36.661Z,65.40
2018-06-19T04:24:06.076Z,65.80
2018-06-19T04:26:34.993Z,65.90
2018-06-19T04:29:03.898Z,66.30
2018-06-19T04:31:33.620Z,66.70
2018-06-19T04:34:02.500Z,66.80
2018-06-19T04:36:31.405Z,66.70
2018-06-19T04:39:00.328Z,67.00
2018-06-19T04:41:29.213Z,67.90
2018-06-19T04:43:58.092Z,67.30
2018-06-19T04:46:26.981Z,67.40
2018-06-19T04:48:56.045Z,67.80
2018-06-19T04:53:53.461Z,68.00
2018-06-19T04:56:22.352Z,67.80
2018-06-19T04:58:51.289Z,68.00
2018-06-19T05:01:20.217Z,68.60
2018-06-19T05:03:49.455Z,68.70
2018-06-19T05:06:18.336Z,69.60
2018-06-19T05:08:47.248Z,70.00
2018-06-19T05:11:16.206Z,69.90
2018-06-19T05:13:45.109Z,70.00
2018-06-19T05:16:13.993Z,70.20
2018-06-19T05:18:42.901Z,70.40
2018-06-19T05:21:11.828Z,69.70
2018-06-19T05:23:40.732Z,69.20
2018-06-19T05:26:09.633Z,69.10
2018-06-19T05:28:38.577Z,69.10
2018-06-19T05:31:07.482Z,68.90
2018-06-19T05:33:36.405Z,68.50
2018-06-19T05:36:05.329Z,67.80
2018-06-19T05:38:34.237Z,67.70
2018-06-19T05:41:03.145Z,67.30
2018-06-19T05:43:32.033Z,66.70
2018-06-19T05:46:00.933Z,67.10
2018-06-19T05:48:29.829Z,66.60
2018-06-19T05:50:58.721Z,67.10
2018-06-19T05:53:27.624Z,67.10
2018-06-19T05:55:56.529Z,67.00
2018-06-19T05:58:25.481Z,65.80
2018-06-19T06:00:54.397Z,64.20
2018-06-19T06:03:23.394Z,62.10
2018-06-19T06:05:52.379Z,59.10
2018-06-19T06:08:21.217Z,57.60
2018-06-19T06:10:50.101Z,56.90
2018-06-19T06:13:19.073Z,54.80
2018-06-19T06:15:47.985Z,53.20
2018-06-19T06:18:17.073Z,51.80
2018-06-19T06:20:46.037Z,51.40
2018-06-19T06:23:14.944Z,51.30
2018-06-19T06:25:43.925Z,49.60
2018-06-19T06:28:12.818Z,48.60
2018-06-19T06:30:41.729Z,48.40
2018-06-19T06:33:10.627Z,47.50
2018-06-19T06:35:39.508Z,45.30
2018-06-19T06:38:08.397Z,45.30
2018-06-19T06:40:37.283Z,45.90
2018-06-19T06:43:06.213Z,44.20
2018-06-19T06:45:35.108Z,43.60
2018-06-19T06:48:04.094Z,43.90
2018-06-19T06:50:33.028Z,44.10
2018-06-19T06:53:01.970Z,43.80
2018-06-19T06:55:30.863Z,43.80
2018-06-19T06:57:59.757Z,43.30
2018-06-19T07:00:28.649Z,43.00
2018-06-19T07:02:57.544Z,42.70
2018-06-19T07:05:26.452Z,42.70
2018-06-19T07:07:55.361Z,41.90
2018-06-19T07:12:52.753Z,41.70
2018-06-19T07:15:21.773Z,42.20
2018-06-19T07:17:50.704Z,42.50
2018-06-19T07:22:48.137Z,41.50
2018-06-19T07:25:17.061Z,41.50
2018-06-19T07:27:45.984Z,41.20
2018-06-19T07:30:14.922Z,40.60
2018-06-19T07:32:43.930Z,41.00
2018-06-19T07:35:12.821Z,41.50
2018-06-19T07:37:41.810Z,41.10
2018-06-19T07:40:10.833Z,41.00
2018-06-19T07:42:39.752Z,41.40
2018-06-19T07:45:08.893Z,40.80
2018-06-19T07:47:37.826Z,40.80
2018-06-19T07:50:07.430Z,41.00
2018-06-19T07:52:36.345Z,40.60
2018-06-19T07:55:05.933Z,40.60
2018-06-19T07:57:34.853Z,40.10
2018-06-19T08:00:04.172Z,40.40
2018-06-19T08:02:33.721Z,41.00
2018-06-19T08:05:04.737Z,40.80
2018-06-19T08:07:34.278Z,40.40
2018-06-19T08:10:03.224Z,40.20
2018-06-19T08:12:32.144Z,41.00
2018-06-19T08:15:01.085Z,40.60
2018-06-19T08:17:29.991Z,40.80
2018-06-19T08:20:00.481Z,40.20
2018-06-19T08:22:29.445Z,40.60
2018-06-19T08:27:33.106Z,41.00
2018-06-19T08:30:04.253Z,40.50
2018-06-19T08:32:34.301Z,41.20
2018-06-19T08:35:03.561Z,40.90
2018-06-19T08:37:32.705Z,40.50
2018-06-19T08:40:06.916Z,40.20
2018-06-19T08:42:35.845Z,40.60
2018-06-19T08:53:04.869Z,41.10
2018-06-19T08:55:33.769Z,40.70
2018-06-19T08:58:02.809Z,41.90
2018-06-19T09:00:31.714Z,42.10
2018-06-19T09:03:00.603Z,42.30
2018-06-19T09:05:29.883Z,42.10
2018-06-19T09:07:59.057Z,41.50
2018-06-19T09:10:28.021Z,41.90
2018-06-19T09:12:56.940Z,41.90
2018-06-19T09:15:25.885Z,41.80
2018-06-19T09:17:54.784Z,42.60
2018-06-19T09:20:23.845Z,42.40
2018-06-19T09:22:52.841Z,42.60
2018-06-19T09:25:21.874Z,42.50
2018-06-19T09:27:50.761Z,42.00
2018-06-19T09:30:19.705Z,41.90
2018-06-19T09:32:48.693Z,41.60
2018-06-19T09:35:17.628Z,42.30
2018-06-19T09:37:46.598Z,41.60
2018-06-19T09:40:15.587Z,41.50
2018-06-19T09:42:44.534Z,41.70
2018-06-19T09:45:13.613Z,41.60
2018-06-19T09:47:42.605Z,41.40
2018-06-19T09:50:11.521Z,41.10
2018-06-19T09:52:40.436Z,40.80
2018-06-19T09:55:09.873Z,40.50
2018-06-19T09:57:39.129Z,40.70
2018-06-19T10:00:09.177Z,41.00
2018-06-19T10:02:38.253Z,40.80
2018-06-19T10:05:07.272Z,40.50
2018-06-19T10:07:36.185Z,40.20
2018-06-19T10:10:05.857Z,39.40
2018-06-19T10:12:34.810Z,39.60
2018-06-19T10:15:04.472Z,39.60
2018-06-19T10:17:33.445Z,39.20
2018-06-19T10:20:02.398Z,40.20
2018-06-19T10:22:31.433Z,40.10
2018-06-19T10:25:00.407Z,39.60
2018-06-19T10:27:29.328Z,39.60
2018-06-19T10:29:58.227Z,39.80
2018-06-19T10:32:27.134Z,39.10
2018-06-19T10:34:56.121Z,39.00
2018-06-19T10:37:25.040Z,39.90
2018-06-19T10:39:53.990Z,38.80
2018-06-19T10:42:23.045Z,38.70
2018-06-19T10:44:52.100Z,38.40
2018-06-19T10:47:21.030Z,39.20
2018-06-19T10:49:49.940Z,38.50
2018-06-19T10:52:18.869Z,38.40
2018-06-19T10:54:47.785Z,38.00
2018-06-19T10:57:16.713Z,37.80
2018-06-19T10:59:45.673Z,38.00
2018-06-19T11:02:14.606Z,37.80
2018-06-19T11:04:43.509Z,37.40
2018-06-19T11:07:12.444Z,37.80
2018-06-19T11:09:41.393Z,38.00
2018-06-19T11:12:10.853Z,37.90
2018-06-19T11:14:39.828Z,39.20
2018-06-19T11:17:09.436Z,37.60
2018-06-19T11:19:38.335Z,37.90
2018-06-19T11:22:07.294Z,37.80
2018-06-19T11:24:36.209Z,37.20
2018-06-19T11:27:05.156Z,37.20
2018-06-19T11:29:34.086Z,37.30
2018-06-19T11:32:03.071Z,37.20
2018-06-19T11:34:31.998Z,37.00
2018-06-19T11:37:00.897Z,37.80
2018-06-19T11:39:29.820Z,37.50
2018-06-19T11:41:58.784Z,36.40
2018-06-19T11:44:27.770Z,36.30
2018-06-19T11:46:56.729Z,37.10
2018-06-19T11:49:25.633Z,37.80
2018-06-19T11:51:54.546Z,36.20
2018-06-19T11:54:23.477Z,36.70
2018-06-19T11:56:52.554Z,37.00
2018-06-19T11:59:21.433Z,36.10
2018-06-19T12:01:50.406Z,35.80
2018-06-19T12:04:19.343Z,36.50
2018-06-19T12:06:48.313Z,36.00
2018-06-19T12:09:17.237Z,36.50
2018-06-19T12:11:46.156Z,36.00
2018-06-19T12:14:15.065Z,36.20
2018-06-19T12:16:43.988Z,37.20
2018-06-19T12:19:12.916Z,36.90
2018-06-19T12:24:10.492Z,36.00
2018-06-19T12:26:39.502Z,36.90
2018-06-19T12:29:08.433Z,36.50
2018-06-19T12:31:37.393Z,36.70
2018-06-19T12:34:06.369Z,37.30
2018-06-19T12:36:35.435Z,35.90
2018-06-19T12:39:07.357Z,36.60
2018-06-19T12:41:47.357Z,36.10
2018-06-19T12:46:44.773Z,36.20
2018-06-19T12:49:13.851Z,36.00
2018-06-19T12:51:54.819Z,35.70
2018-06-19T12:56:35.605Z,35.10
2018-06-19T12:59:04.549Z,35.50
2018-06-19T13:01:33.542Z,35.40
2018-06-19T13:04:13.218Z,35.70
2018-06-19T13:06:42.305Z,36.90
2018-06-19T13:09:11.281Z,35.10
2018-06-19T13:11:41.360Z,35.60
2018-06-19T13:14:20.916Z,35.00
2018-06-19T13:18:00.878Z,34.80
2018-06-19T13:20:44.645Z,35.70
2018-06-19T13:23:14.531Z,35.60
2018-06-19T13:25:43.528Z,35.50
2018-06-19T13:28:13.096Z,35.50
2018-06-19T13:30:52.699Z,36.00
2018-06-19T13:33:21.717Z,36.10
2018-06-19T13:35:50.841Z,35.80
2018-06-19T13:38:20.194Z,35.30
2018-06-19T13:41:00.972Z,35.40
2018-06-19T13:43:40.957Z,35.00
2018-06-19T13:46:10.437Z,36.40
2018-06-19T13:48:40.213Z,36.20
2018-06-19T13:51:09.748Z,37.00
2018-06-19T13:53:38.721Z,36.80
2018-06-19T13:57:18.305Z,35.90
2018-06-19T13:59:47.237Z,35.30
2018-06-19T14:02:16.418Z,36.00
2018-06-19T14:04:45.334Z,35.80
2018-06-19T14:07:14.273Z,35.90
2018-06-19T14:09:53.825Z,36.00
2018-06-19T14:12:33.505Z,36.30
2018-06-19T14:15:02.434Z,36.20
2018-06-19T14:19:59.867Z,36.60
2018-06-19T14:22:28.793Z,36.30
2018-06-19T14:24:57.708Z,35.80
2018-06-19T14:27:26.629Z,35.40
2018-06-19T14:29:55.572Z,36.20
2018-06-19T14:32:24.491Z,36.50
2018-06-19T14:34:53.439Z,36.50
2018-06-19T14:37:22.352Z,36.20
2018-06-19T14:39:51.306Z,36.00
2018-06-19T14:42:20.274Z,36.20
2018-06-19T14:44:49.246Z,36.60
2018-06-19T14:47:18.145Z,37.70
2018-06-19T14:49:47.065Z,37.40
2018-06-19T14:52:16.029Z,36.00
2018-06-19T14:54:44.950Z,36.20
2018-06-19T14:57:13.868Z,36.80
2018-06-19T14:59:42.857Z,36.10
2018-06-19T15:02:11.766Z,36.20
2018-06-19T15:07:09.189Z,38.20
2018-06-19T15:09:38.105Z,38.70
2018-06-19T15:12:09.217Z,37.90
2018-06-19T15:14:38.120Z,38.00
2018-06-19T15:17:07.029Z,37.30
2018-06-19T15:19:35.997Z,38.00
2018-06-19T15:22:04.950Z,36.40
2018-06-19T15:24:33.887Z,36.40
2018-06-19T15:27:02.908Z,36.70
2018-06-19T15:29:31.873Z,36.60
2018-06-19T15:32:00.828Z,35.20
2018-06-19T15:34:29.727Z,37.00
2018-06-19T15:36:58.646Z,37.50
2018-06-19T15:39:27.585Z,37.50
2018-06-19T15:44:25.809Z,37.30
2018-06-19T15:46:54.778Z,36.70
2018-06-19T15:49:24.303Z,37.60
2018-06-19T15:51:53.250Z,37.30
2018-06-19T15:54:22.189Z,37.20
2018-06-19T15:56:51.105Z,36.80
2018-06-19T15:59:20.052Z,37.40
2018-06-19T16:01:48.970Z,38.20
2018-06-19T16:04:17.915Z,36.80
2018-06-19T16:06:46.826Z,37.40
2018-06-19T16:09:15.785Z,36.90
2018-06-19T16:11:44.769Z,37.00
2018-06-19T16:14:13.705Z,37.10
2018-06-19T16:16:42.607Z,37.00
2018-06-19T16:19:11.553Z,36.80
2018-06-19T16:21:40.512Z,36.90
2018-06-19T16:24:09.412Z,36.00
2018-06-19T16:26:38.321Z,36.90
2018-06-19T16:29:07.248Z,36.60
2018-06-19T16:31:36.214Z,36.60
2018-06-19T16:34:05.150Z,36.40
2018-06-19T16:36:34.123Z,36.30
2018-06-19T16:39:03.361Z,36.60
2018-06-19T16:41:32.367Z,37.10
2018-06-19T16:44:01.279Z,38.00
2018-06-19T16:46:30.197Z,37.60
2018-06-19T16:48:59.117Z,37.30
2018-06-19T16:51:28.028Z,37.00
2018-06-19T16:53:56.981Z,37.60
2018-06-19T16:56:25.977Z,38.20
2018-06-19T16:58:54.888Z,37.00
2018-06-19T17:01:23.800Z,36.30
2018-06-19T17:03:52.763Z,36.20
2018-06-19T17:06:21.676Z,36.50
2018-06-19T17:08:50.579Z,36.70
2018-06-19T17:11:19.477Z,37.00
2018-06-19T17:13:48.390Z,37.60
2018-06-19T17:16:17.303Z,38.70
2018-06-19T17:18:46.197Z,39.40
2018-06-19T17:21:15.087Z,40.10
2018-06-19T17:23:43.979Z,40.90
2018-06-19T17:26:12.875Z,41.70
2018-06-19T17:28:42.322Z,41.70
2018-06-19T17:31:11.217Z,42.00
2018-06-19T17:33:40.109Z,42.10
2018-06-19T17:36:08.997Z,42.90
2018-06-19T17:38:37.881Z,43.20
2018-06-19T17:41:06.813Z,43.20
2018-06-19T17:43:35.724Z,43.60
2018-06-19T17:46:04.662Z,44.10
2018-06-19T17:48:33.566Z,44.30
2018-06-19T17:51:02.469Z,44.40
2018-06-19T17:53:31.389Z,44.80
2018-06-19T17:56:00.318Z,45.60
2018-06-19T17:58:29.236Z,46.20
2018-06-19T18:00:58.201Z,47.10
2018-06-19T18:03:27.761Z,47.20
2018-06-19T18:05:56.641Z,47.60
2018-06-19T18:08:25.533Z,48.60
2018-06-19T18:10:54.441Z,48.60
2018-06-19T18:13:23.340Z,48.70
2018-06-19T18:15:52.297Z,49.20
2018-06-19T18:18:21.296Z,49.10
2018-06-19T18:20:50.197Z,49.10
2018-06-19T18:23:19.168Z,49.30
2018-06-19T18:25:48.054Z,49.50
2018-06-19T18:28:16.937Z,49.60
2018-06-19T18:30:45.818Z,49.60
2018-06-19T18:33:14.782Z,49.70
2018-06-19T18:35:43.721Z,49.70
2018-06-19T18:38:12.634Z,49.60
2018-06-19T18:40:41.513Z,50.00
2018-06-19T18:43:10.469Z,50.30
2018-06-19T18:45:42.223Z,50.60
2018-06-19T18:48:11.169Z,50.90
2018-06-19T18:50:40.052Z,51.30
2018-06-19T18:53:08.993Z,51.50
2018-06-19T18:55:37.973Z,51.70
2018-06-19T18:58:06.893Z,51.80
2018-06-19T19:00:35.798Z,52.70
2018-06-19T19:03:09.665Z,52.40
2018-06-19T19:05:38.632Z,52.90
2018-06-19T19:08:11.749Z,53.00
2018-06-19T19:10:46.837Z,53.10
2018-06-19T19:13:15.749Z,53.60
2018-06-19T19:15:49.953Z,54.10
2018-06-19T19:18:24.193Z,54.40
2018-06-19T19:20:53.524Z,55.20
2018-06-19T19:23:22.461Z,55.60
2018-06-19T19:25:51.646Z,56.20
2018-06-19T19:28:25.888Z,56.70
2018-06-19T19:30:54.940Z,57.40
2018-06-19T19:33:23.828Z,58.00
2018-06-19T19:35:52.759Z,58.50
2018-06-19T19:38:26.916Z,58.80
2018-06-19T19:40:55.898Z,59.30
2018-06-19T19:43:24.835Z,59.80
2018-06-19T19:48:27.567Z,61.00
2018-06-19T19:50:56.476Z,61.60
2018-06-19T19:53:25.428Z,62.40
2018-06-19T19:56:00.446Z,62.90
2018-06-19T19:58:35.205Z,63.00
2018-06-19T20:01:04.174Z,63.40
2018-06-19T20:03:33.109Z,63.70
2018-06-19T20:06:02.039Z,64.00
2018-06-19T20:08:31.008Z,64.20
2018-06-19T20:10:59.904Z,64.50
2018-06-19T20:13:28.801Z,64.70
2018-06-19T20:15:57.701Z,64.60
2018-06-19T20:18:26.597Z,64.60
2018-06-19T20:20:55.500Z,64.40
2018-06-19T20:23:24.358Z,64.60
2018-06-19T20:25:53.262Z,64.70
2018-06-19T20:28:22.141Z,64.80
2018-06-19T20:30:51.090Z,64.90
2018-06-19T20:33:19.996Z,65.60
2018-06-19T20:35:48.904Z,66.20
2018-06-19T20:38:17.789Z,66.40
2018-06-19T20:40:46.692Z,66.50
2018-06-19T20:43:15.605Z,66.70
2018-06-19T20:45:44.517Z,66.90
2018-06-19T20:48:13.482Z,67.20
2018-06-19T20:50:42.369Z,67.10
2018-06-19T20:53:11.309Z,67.20
2018-06-19T20:55:40.208Z,67.90
2018-06-19T20:58:09.169Z,67.10
2018-06-19T21:00:38.101Z,67.50
2018-06-19T21:03:07.653Z,67.40
2018-06-19T21:05:36.537Z,67.60
2018-06-19T21:08:57.169Z,68.10
2018-06-19T21:11:26.120Z,68.00
2018-06-19T21:13:55.042Z,68.10
2018-06-19T21:16:24.005Z,68.20
2018-06-19T21:18:52.917Z,68.50
2018-06-19T21:21:21.978Z,68.90
2018-06-19T21:23:50.877Z,68.70
2018-06-19T21:26:19.760Z,68.80
2018-06-19T21:28:48.660Z,68.90
2018-06-19T21:31:17.548Z,69.30
2018-06-19T21:33:46.453Z,69.40
2018-06-19T21:36:15.361Z,69.30
2018-06-19T21:38:44.257Z,69.40
2018-06-19T21:41:13.152Z,69.00
2018-06-19T21:43:42.101Z,68.80
2018-06-19T21:46:11.102Z,68.90
2018-06-19T21:48:40.048Z,69.30
2018-06-19T21:51:08.961Z,69.10
2018-06-19T21:53:37.924Z,69.00
2018-06-19T21:56:06.833Z,69.10
2018-06-19T21:58:36.623Z,69.00
2018-06-19T22:01:05.703Z,69.00
2018-06-19T22:03:34.617Z,69.10
2018-06-19T22:06:03.567Z,69.20
2018-06-19T22:08:37.705Z,69.60
2018-06-19T22:11:06.765Z,69.50
2018-06-19T22:13:36.608Z,69.80
2018-06-19T22:16:05.577Z,70.10
2018-06-19T22:21:03.385Z,70.70
2018-06-19T22:23:32.333Z,70.70
2018-06-19T22:26:01.221Z,70.90
2018-06-19T22:28:30.182Z,70.80
2018-06-19T22:30:59.144Z,70.90
2018-06-19T22:33:28.037Z,70.80
2018-06-19T22:35:56.945Z,70.60
2018-06-19T22:38:27.012Z,70.50
2018-06-19T22:40:55.901Z,70.80
2018-06-19T22:43:24.812Z,71.10
2018-06-19T22:45:53.729Z,71.00
2018-06-19T22:48:22.725Z,71.00
2018-06-19T22:50:51.634Z,71.30
2018-06-19T22:53:20.629Z,71.50
2018-06-19T22:55:49.621Z,71.60
2018-06-19T22:58:18.556Z,71.80
2018-06-19T23:00:47.489Z,72.00
2018-06-19T23:03:16.415Z,72.30
2018-06-19T23:05:45.354Z,72.30
2018-06-19T23:08:14.284Z,72.20
2018-06-19T23:10:43.184Z,71.90
2018-06-19T23:13:12.121Z,71.90
2018-06-19T23:18:09.528Z,71.90
2018-06-19T23:20:38.443Z,72.10
2018-06-19T23:23:07.432Z,72.10
2018-06-19T23:25:36.351Z,71.60
2018-06-19T23:28:05.279Z,72.00
2018-06-19T23:30:34.185Z,71.80
2018-06-19T23:33:03.142Z,71.50
2018-06-19T23:38:00.565Z,71.80
2018-06-19T23:40:29.531Z,71.70
2018-06-19T23:42:58.467Z,72.00
2018-06-19T23:45:27.383Z,72.10
2018-06-19T23:47:56.314Z,72.10
2018-06-19T23:50:25.226Z,72.30
2018-06-19T23:52:54.173Z,72.40
2018-06-19T23:55:23.107Z,72.40
2018-06-19T23:57:52.051Z,72.10
